Tarnov, Nebraska
Current Conditions -  °F | °C
As of 10:56 AM on Thursday 30 Oct 2014 (Local Time) from KOFK Reporting Station
Clear Clear  
Wind Chill: 54°   Ceiling: Unl
Heat Index: 54°   Visibility: 10mi
Dew Point: 40°   Wind: 17mph
Humidity: 59%   Direction: 330°NNW
Pressure: 30.1"   Gusts: 25mph
Location:  41.6572°N, 97.512°W
Report Text: KOFK 301556Z AUTO 33015G22KT 10SM CLR 12/04 A3010 RMK AO2 PK WND 33028/1519 SLP199 T01220044
Loading
Personal Weather Stations






























Interactive Weather Map
Tropical Storm Tracking
New forecast layout! Learn more

10-Day Weather Forecast

Advertisements
Track Severe Weather on mobile